createdAt,value
2022-08-05T00:00:51.339Z,3.20
2022-08-05T00:06:04.679Z,2.83
2022-08-05T00:11:20.642Z,2.97
2022-08-05T00:16:36.165Z,2.70
2022-08-05T00:21:51.088Z,2.90
2022-08-05T00:26:52.861Z,3.08
2022-08-05T00:32:12.743Z,2.53
2022-08-05T00:37:15.841Z,2.55
2022-08-05T00:42:31.410Z,2.63
2022-08-05T00:47:56.461Z,2.40
2022-08-05T00:52:55.524Z,2.40
2022-08-05T00:57:59.114Z,2.80
2022-08-05T01:03:00.475Z,2.97
2022-08-05T01:08:30.812Z,2.80
2022-08-05T01:13:57.849Z,3.17
2022-08-05T01:18:56.435Z,2.83
2022-08-05T01:24:14.869Z,2.90
2022-08-05T01:29:23.174Z,2.85
2022-08-05T01:34:28.986Z,2.78
2022-08-05T01:39:46.548Z,3.00
2022-08-05T01:44:54.165Z,2.70
2022-08-05T01:50:01.277Z,2.60
2022-08-05T01:55:07.429Z,2.67
2022-08-05T02:00:12.591Z,2.97
2022-08-05T02:05:14.812Z,3.03
2022-08-05T02:10:17.266Z,3.20
2022-08-05T02:15:25.026Z,3.08
2022-08-05T02:20:45.009Z,3.22
2022-08-05T02:25:50.649Z,3.42
2022-08-05T02:30:58.657Z,3.33
2022-08-05T02:36:01.495Z,3.22
2022-08-05T02:41:14.531Z,3.03
2022-08-05T02:46:27.486Z,3.10
2022-08-05T02:52:04.119Z,3.40
2022-08-05T02:56:50.070Z,3.55
2022-08-05T03:01:58.153Z,3.53
2022-08-05T03:07:00.338Z,3.22
2022-08-05T03:12:01.839Z,3.40
2022-08-05T03:17:08.736Z,3.88
2022-08-05T03:22:16.801Z,3.38
2022-08-05T03:27:58.028Z,3.50
2022-08-05T03:32:52.359Z,3.33
2022-08-05T03:37:57.153Z,2.90
2022-08-05T03:42:59.088Z,3.08
2022-08-05T03:48:03.881Z,3.80
2022-08-05T03:55:34.573Z,3.35
2022-08-05T03:58:35.080Z,3.47
2022-08-05T04:03:39.882Z,3.28
2022-08-05T04:09:01.060Z,4.15
2022-08-05T04:14:01.991Z,3.50
2022-08-05T04:19:04.340Z,3.85
2022-08-05T04:24:19.355Z,4.15
2022-08-05T04:29:23.208Z,3.40
2022-08-05T04:34:33.117Z,3.97
2022-08-05T04:39:35.654Z,4.13
2022-08-05T04:44:36.354Z,4.20
2022-08-05T04:50:03.071Z,3.30
2022-08-05T04:54:59.795Z,4.20
2022-08-05T05:00:15.669Z,4.00
2022-08-05T05:05:28.092Z,3.90
2022-08-05T05:10:30.549Z,3.88
2022-08-05T05:16:00.449Z,3.65
2022-08-05T05:20:56.584Z,3.90
2022-08-05T05:25:59.156Z,3.85
2022-08-05T05:31:01.350Z,3.92
2022-08-05T05:36:08.442Z,3.08
2022-08-05T05:41:10.985Z,3.60
2022-08-05T05:46:18.783Z,3.60
2022-08-05T05:51:22.153Z,3.25
2022-08-05T05:56:26.026Z,3.45
2022-08-05T06:01:37.599Z,3.33
2022-08-05T06:06:42.512Z,3.95
2022-08-05T06:11:43.313Z,3.70
2022-08-05T06:17:02.279Z,3.80
2022-08-05T06:22:26.779Z,3.90
2022-08-05T06:28:10.966Z,3.80
2022-08-05T06:32:48.228Z,4.35
2022-08-05T06:37:58.127Z,3.88
2022-08-05T06:42:59.601Z,4.05
2022-08-05T06:48:36.778Z,3.35
2022-08-05T06:53:27.911Z,3.17
2022-08-05T06:58:36.141Z,3.03
2022-08-05T07:03:37.388Z,2.70
2022-08-05T07:08:39.376Z,2.33
2022-08-05T07:14:00.485Z,2.45
2022-08-05T07:19:01.095Z,2.80
2022-08-05T07:24:04.012Z,3.45
2022-08-05T07:29:12.203Z,3.38
2022-08-05T07:34:13.949Z,3.63
2022-08-05T07:40:03.790Z,3.65
2022-08-05T07:44:38.130Z,4.07
2022-08-05T07:49:43.470Z,4.15
2022-08-05T07:54:56.510Z,4.28
2022-08-05T07:59:58.798Z,4.88
2022-08-05T08:04:59.894Z,3.72
2022-08-05T08:10:02.365Z,3.80
2022-08-05T08:15:04.467Z,3.70
2022-08-05T08:20:43.477Z,3.60
2022-08-05T08:25:59.377Z,4.00
2022-08-05T08:30:50.247Z,4.00
2022-08-05T08:35:52.971Z,3.85
2022-08-05T08:41:01.512Z,3.95
2022-08-05T08:46:04.154Z,3.78
2022-08-05T08:51:30.621Z,4.10
2022-08-05T08:56:28.098Z,4.03
2022-08-05T09:01:28.783Z,3.55
2022-08-05T09:06:31.709Z,3.88
2022-08-05T09:11:53.059Z,3.70
2022-08-05T09:16:56.600Z,3.42
2022-08-05T09:22:22.056Z,4.28
2022-08-05T09:28:04.420Z,4.00
2022-08-05T09:32:54.261Z,4.07
2022-08-05T09:38:17.389Z,3.40
2022-08-05T09:43:41.207Z,3.33
2022-08-05T09:48:42.720Z,3.95
2022-08-05T09:53:59.337Z,3.90
2022-08-05T09:59:05.108Z,3.50
2022-08-05T10:04:11.059Z,3.60
2022-08-05T10:09:27.278Z,3.58
2022-08-05T10:14:32.338Z,3.42
2022-08-05T10:20:03.865Z,3.70
2022-08-05T10:24:54.091Z,4.25
2022-08-05T10:30:06.497Z,4.15
2022-08-05T10:35:17.788Z,4.47
2022-08-05T10:40:28.319Z,3.78
2022-08-05T10:45:41.772Z,4.30
2022-08-05T10:51:22.490Z,3.75
2022-08-05T10:56:26.330Z,4.13
2022-08-05T11:01:55.623Z,3.75
2022-08-05T11:07:08.242Z,4.15
2022-08-05T11:12:45.445Z,3.92
2022-08-05T11:17:59.486Z,3.88
2022-08-05T11:24:04.503Z,4.13
2022-08-05T11:29:13.231Z,3.78
2022-08-05T11:34:18.991Z,4.38
2022-08-05T11:40:00.836Z,4.03
2022-08-05T11:45:23.074Z,3.45
2022-08-05T11:50:29.471Z,3.85
2022-08-05T11:55:31.725Z,3.05
2022-08-05T12:00:38.392Z,3.88
2022-08-05T12:05:43.635Z,3.78
2022-08-05T12:10:46.458Z,2.80
2022-08-05T12:15:49.622Z,3.08
2022-08-05T12:20:52.420Z,3.80
2022-08-05T12:25:56.407Z,2.83
2022-08-05T12:30:58.343Z,2.63
2022-08-05T12:36:07.196Z,2.88
2022-08-05T12:41:13.261Z,2.90
2022-08-05T12:46:29.082Z,2.35
2022-08-05T12:52:13.585Z,2.55
2022-08-05T12:56:54.613Z,2.42
2022-08-05T13:02:07.478Z,3.17
2022-08-05T13:07:31.010Z,2.70
2022-08-05T13:12:42.472Z,2.70
2022-08-05T13:17:55.834Z,2.80
2022-08-05T13:23:01.367Z,2.65
2022-08-05T13:28:07.918Z,2.47
2022-08-05T13:33:14.185Z,2.30
2022-08-05T13:38:28.271Z,2.60
2022-08-05T13:43:45.759Z,2.10
2022-08-05T13:48:58.548Z,2.55
2022-08-05T13:54:02.258Z,2.53
2022-08-05T13:59:06.089Z,2.30
2022-08-05T14:04:38.410Z,1.80
2022-08-05T14:09:46.050Z,1.98
2022-08-05T14:14:47.334Z,2.28
2022-08-05T14:19:55.112Z,2.28
2022-08-05T14:24:58.844Z,2.35
2022-08-05T14:29:59.675Z,2.30
2022-08-05T14:35:00.622Z,2.08
2022-08-05T14:40:02.691Z,2.13
2022-08-05T14:45:04.357Z,2.03
2022-08-05T14:50:18.407Z,3.28
2022-08-05T14:55:21.301Z,2.60
2022-08-05T15:00:22.371Z,2.28
2022-08-05T15:05:29.828Z,2.50
2022-08-05T15:10:32.645Z,2.50
2022-08-05T15:15:54.127Z,2.50
2022-08-05T15:20:54.029Z,2.03
2022-08-05T15:25:59.733Z,2.00
2022-08-05T15:31:05.671Z,2.15
2022-08-05T15:36:16.648Z,2.65
2022-08-05T15:41:22.584Z,2.10
2022-08-05T15:46:25.252Z,2.20
2022-08-05T15:52:03.924Z,1.83
2022-08-05T15:56:49.197Z,1.90
2022-08-05T16:01:52.730Z,2.30
2022-08-05T16:06:55.433Z,2.83
2022-08-05T16:11:57.789Z,2.35
2022-08-05T16:16:58.485Z,2.10
2022-08-05T16:22:02.709Z,2.03
2022-08-05T16:27:07.300Z,1.95
2022-08-05T16:32:09.644Z,2.08
2022-08-05T16:38:03.685Z,2.05
2022-08-05T16:42:34.456Z,1.90
2022-08-05T16:47:48.391Z,1.90
2022-08-05T16:52:56.462Z,2.88
2022-08-05T16:58:00.190Z,2.38
2022-08-05T17:03:02.201Z,2.28
2022-08-05T17:08:02.832Z,2.58
2022-08-05T17:13:04.929Z,3.10
2022-08-05T17:18:17.695Z,2.63
2022-08-05T17:24:04.370Z,2.38
2022-08-05T17:28:41.631Z,2.50
2022-08-05T17:33:48.351Z,2.53
2022-08-05T17:38:51.804Z,2.10
2022-08-05T17:43:54.402Z,1.80
2022-08-05T17:48:55.335Z,1.92
2022-08-05T17:53:55.937Z,2.42
2022-08-05T17:58:58.271Z,2.80
2022-08-05T18:04:04.760Z,2.08
2022-08-05T18:09:06.567Z,2.67
2022-08-05T18:14:20.559Z,2.08
2022-08-05T18:19:22.903Z,2.50
2022-08-05T18:24:26.491Z,2.63
2022-08-05T18:29:40.688Z,2.22
2022-08-05T18:34:43.185Z,3.15
2022-08-05T18:40:34.363Z,3.17
2022-08-05T18:45:06.748Z,3.35
2022-08-05T18:50:42.358Z,4.00
2022-08-05T18:55:46.765Z,3.70
2022-08-05T19:00:49.401Z,4.47
2022-08-05T19:06:11.397Z,4.82
2022-08-05T19:11:10.758Z,4.82
2022-08-05T19:16:22.141Z,5.18
2022-08-05T19:21:34.208Z,5.35
2022-08-05T19:26:36.118Z,5.50
2022-08-05T19:31:57.355Z,6.10
2022-08-05T19:36:58.189Z,6.78
2022-08-05T19:42:07.158Z,6.38
2022-08-05T19:47:11.347Z,5.60
2022-08-05T19:52:31.029Z,5.70
2022-08-05T19:57:49.319Z,6.07
2022-08-05T20:02:54.429Z,4.88
2022-08-05T20:07:59.117Z,5.45
2022-08-05T20:13:01.054Z,4.65
2022-08-05T20:18:04.318Z,3.45
2022-08-05T20:23:11.740Z,3.50
2022-08-05T20:28:14.686Z,2.60
2022-08-05T20:33:17.163Z,2.40
2022-08-05T20:38:26.660Z,2.00
2022-08-05T20:43:57.410Z,2.00
2022-08-05T20:48:51.152Z,2.08
2022-08-05T20:53:56.398Z,1.30
2022-08-05T20:59:00.166Z,1.30
2022-08-05T21:04:17.870Z,1.17
2022-08-05T21:09:18.547Z,1.02
2022-08-05T21:14:20.358Z,1.05
2022-08-05T21:19:28.566Z,0.75
2022-08-05T21:24:29.565Z,0.93
2022-08-05T21:29:31.318Z,1.00
2022-08-05T21:34:35.431Z,0.98
2022-08-05T21:39:38.434Z,1.27
2022-08-05T21:44:41.546Z,1.00
2022-08-05T21:49:59.335Z,1.20
2022-08-05T21:55:06.410Z,0.82
2022-08-05T22:00:11.119Z,1.05
2022-08-05T22:05:16.453Z,1.20
2022-08-05T22:10:18.401Z,0.95
2022-08-05T22:16:02.601Z,0.93
2022-08-05T22:20:51.574Z,1.25
2022-08-05T22:26:14.084Z,1.20
2022-08-05T22:31:15.634Z,1.52
2022-08-05T22:36:17.925Z,1.13
2022-08-05T22:42:05.355Z,1.10
2022-08-05T22:46:41.940Z,1.05
2022-08-05T22:52:05.452Z,1.10
2022-08-05T22:57:08.566Z,1.30
2022-08-05T23:02:09.352Z,1.80
2022-08-05T23:07:11.385Z,1.25
2022-08-05T23:12:13.649Z,1.33
2022-08-05T23:17:34.105Z,1.48
2022-08-05T23:22:39.825Z,1.70
2022-08-05T23:27:57.716Z,1.30
2022-08-05T23:33:01.231Z,1.65
2022-08-05T23:38:03.190Z,1.65
2022-08-05T23:43:11.510Z,1.42
2022-08-05T23:48:26.411Z,1.60
2022-08-05T23:53:28.798Z,1.50
2022-08-05T23:58:47.507Z,1.83
